Time;durP1;ratioP1;P1;durP2;ratioP2;P2;SDS_P1;SDS_P2;PMS_P1;PMS_P2;Temp;Humidity;BMP_temperature;BMP_pressure;BME280_temperature;BME280_humidity;BME280_pressure;Samples;Min_cycle;Max_cycle;Signal;HPM_P1;HPM_P2
2022/04/30 00:01:28;;;;;;;;;35.00;31.25;;;;;10.56;57.94;101755.41;4976683;28;45299;-65
2022/04/30 00:03:54;;;;;;;;;36.75;32.50;;;;;10.50;59.43;101761.69;4977195;28;45339;-67
2022/04/30 00:06:19;;;;;;;;;36.25;31.50;;;;;10.40;58.61;101754.91;4977807;28;45658;-66
2022/04/30 00:08:44;;;;;;;;;39.50;33.50;;;;;10.38;58.73;101764.53;4978207;28;45330;-66
2022/04/30 00:11:10;;;;;;;;;45.00;34.75;;;;;10.33;58.83;101764.63;4978261;28;45207;-66
2022/04/30 00:13:37;;;;;;;;;40.00;33.75;;;;;10.25;59.85;101769.16;4960800;28;45385;-66
2022/04/30 00:16:03;;;;;;;;;38.75;35.50;;;;;10.05;59.55;101741.50;4978289;28;46368;-66
2022/04/30 00:18:28;;;;;;;;;43.50;35.00;;;;;10.09;60.13;101771.25;4978045;28;45376;-65
2022/04/30 00:20:53;;;;;;;;;40.25;33.75;;;;;9.98;60.45;101755.66;4978559;28;45435;-65
2022/04/30 00:23:19;;;;;;;;;31.25;29.25;;;;;9.92;60.33;101754.00;4978438;28;45510;-65
2022/04/30 00:25:48;;;;;;;;;41.25;34.75;;;;;9.82;61.15;101757.69;4977826;28;46116;-65
2022/04/30 00:28:14;;;;;;;;;43.50;36.25;;;;;9.75;61.48;101759.59;4960182;28;45355;-66
2022/04/30 00:30:40;;;;;;;;;44.25;36.75;;;;;9.68;61.58;101757.97;4978093;28;45303;-64
2022/04/30 00:33:09;;;;;;;;;38.75;32.25;;;;;9.57;62.04;101747.63;4977861;28;45578;-65
2022/04/30 00:35:35;;;;;;;;;39.75;34.25;;;;;9.56;61.97;101755.56;4977639;28;46209;-64
2022/04/30 00:38:00;;;;;;;;;40.75;33.25;;;;;9.56;62.48;101758.19;4977501;28;45350;-65
2022/04/30 00:40:25;;;;;;;;;41.50;34.25;;;;;9.49;63.01;101763.50;4960370;28;49093;-64
2022/04/30 00:42:50;;;;;;;;;42.75;35.25;;;;;9.46;62.98;101760.09;4960232;28;45628;-64
2022/04/30 00:45:16;;;;;;;;;46.75;35.50;;;;;9.39;62.87;101763.69;4977317;28;46445;-64
2022/04/30 00:47:41;;;;;;;;;39.75;35.00;;;;;9.37;63.44;101768.97;4977432;28;45441;-64
2022/04/30 00:50:07;;;;;;;;;49.50;35.25;;;;;9.33;64.08;101764.66;4977524;28;45290;-64
2022/04/30 00:52:34;;;;;;;;;48.50;38.25;;;;;9.32;64.95;101773.41;4977586;28;45172;-64
2022/04/30 00:55:06;;;;;;;;;41.00;34.50;;;;;9.25;64.26;101763.91;4977270;28;45795;-64
2022/04/30 00:57:33;;;;;;;;;44.25;37.75;;;;;9.27;64.22;101765.63;4977355;28;45414;-64
2022/04/30 01:00:00;;;;;;;;;40.50;35.50;;;;;9.25;64.86;101767.41;4977355;28;45397;-62
2022/04/30 01:02:31;;;;;;;;;44.00;33.50;;;;;9.21;64.81;101758.72;4977863;28;45200;-64
2022/04/30 01:04:58;;;;;;;;;45.75;39.00;;;;;9.12;65.34;101761.47;4977592;28;46561;-64
2022/04/30 01:07:24;;;;;;;;;45.25;37.00;;;;;9.08;65.71;101758.94;4959634;28;45243;-64
2022/04/30 01:09:51;;;;;;;;;44.25;36.50;;;;;9.04;65.69;101758.97;4977255;28;45468;-65
2022/04/30 01:12:16;;;;;;;;;45.00;38.50;;;;;8.95;66.35;101747.75;4977259;28;45370;-63
2022/04/30 01:14:42;;;;;;;;;47.50;38.25;;;;;8.97;66.06;101756.47;4977215;28;46337;-64
2022/04/30 01:17:10;;;;;;;;;47.25;37.25;;;;;8.94;65.93;101746.84;4976913;28;45350;-62
2022/04/30 01:19:43;;;;;;;;;48.75;40.75;;;;;8.90;66.72;101745.16;4975774;28;45372;-63
2022/04/30 01:22:20;;;;;;;;;44.50;35.50;;;;;8.90;66.97;101746.06;4977330;28;45321;-63
2022/04/30 01:24:46;;;;;;;;;45.25;36.75;;;;;8.88;67.34;101742.59;4976790;28;45346;-64
2022/04/30 01:27:13;;;;;;;;;48.00;38.25;;;;;8.81;67.46;101733.06;4976573;28;45271;-64
2022/04/30 01:29:38;;;;;;;;;42.25;35.00;;;;;8.82;67.34;101739.16;4976900;28;45350;-64
2022/04/30 01:37:38;;;;;;;;;42.75;36.50;;;;;8.81;67.06;101740.06;4976700;28;45436;-63
2022/04/30 01:40:08;;;;;;;;;44.50;36.00;;;;;8.81;67.93;101746.19;4976757;28;45393;-63
2022/04/30 01:42:38;;;;;;;;;38.75;34.25;;;;;8.80;67.78;101748.81;4976722;28;45464;-64
2022/04/30 01:45:05;;;;;;;;;45.75;38.00;;;;;8.80;67.74;101744.44;4975631;28;45531;-64
2022/04/30 01:47:33;;;;;;;;;49.75;37.50;;;;;8.80;68.07;101731.34;4977036;28;45348;-64
2022/04/30 01:49:59;;;;;;;;;46.75;36.50;;;;;8.79;68.35;101731.34;4977149;28;45509;-64
2022/04/30 01:52:24;;;;;;;;;38.75;34.25;;;;;8.75;68.26;101731.38;4976811;28;45335;-64
2022/04/30 01:54:50;;;;;;;;;45.00;34.75;;;;;8.74;68.30;101726.16;4976314;28;46441;-63
2022/04/30 01:57:23;;;;;;;;;43.75;35.50;;;;;8.69;69.14;101714.88;4976067;28;45305;-63
2022/04/30 01:59:49;;;;;;;;;41.00;35.50;;;;;8.69;69.03;101720.13;4976425;28;45464;-65
2022/04/30 02:02:15;;;;;;;;;46.75;39.25;;;;;8.71;68.72;101724.44;4976777;28;45492;-64
2022/04/30 02:04:41;;;;;;;;;40.50;35.00;;;;;8.71;68.38;101718.34;4976164;28;46492;-64
2022/04/30 02:07:06;;;;;;;;;42.00;36.00;;;;;8.69;69.08;101714.88;4976209;28;45414;-63
2022/04/30 02:09:32;;;;;;;;;41.75;35.00;;;;;8.71;68.88;101723.59;4976786;28;45421;-64
2022/04/30 02:11:59;;;;;;;;;43.25;36.00;;;;;8.68;68.83;101721.00;4976800;28;45536;-67
2022/04/30 02:14:32;;;;;;;;;39.50;34.75;;;;;8.70;69.41;101717.47;4976051;28;45315;-64
2022/04/30 02:17:01;;;;;;;;;43.75;33.25;;;;;8.69;69.01;101709.63;4976372;28;45489;-63
2022/04/30 02:20:18;;;;;;;;;43.50;36.00;;;;;8.65;70.49;101716.66;4976286;28;45334;-64
2022/04/30 02:22:16;;;;;;;;;45.25;37.00;;;;;8.64;69.81;101711.44;4976176;28;45274;-64
2022/04/30 02:24:42;;;;;;;;;41.25;36.00;;;;;8.60;69.23;101706.25;4976001;28;46739;-64
2022/04/30 02:27:07;;;;;;;;;46.50;36.75;;;;;8.59;69.97;101703.63;4976158;28;45458;-64
2022/04/30 02:29:33;;;;;;;;;45.75;36.00;;;;;8.60;69.61;101706.25;4958923;28;45477;-63
2022/04/30 02:31:58;;;;;;;;;37.25;34.25;;;;;8.56;70.09;101709.81;4976445;28;45572;-63
2022/04/30 02:34:23;;;;;;;;;42.25;33.75;;;;;8.54;70.81;101708.97;4975962;28;46542;-63
2022/04/30 02:36:49;;;;;;;;;42.75;36.25;;;;;8.51;70.22;101709.00;4975656;28;45310;-64
2022/04/30 02:39:14;;;;;;;;;48.75;39.00;;;;;8.52;70.00;101704.59;4976012;28;45343;-65
2022/04/30 02:41:39;;;;;;;;;43.75;37.00;;;;;8.51;70.05;101709.00;4958569;28;45414;-64
2022/04/30 02:44:05;;;;;;;;;40.50;33.00;;;;;8.53;69.91;101715.09;4975559;28;49730;-64
2022/04/30 02:46:31;;;;;;;;;44.00;37.00;;;;;8.53;70.29;101716.84;4958429;28;45520;-63
2022/04/30 02:48:56;;;;;;;;;44.00;37.25;;;;;8.51;70.09;101716.88;4958259;28;45273;-64
2022/04/30 02:51:22;;;;;;;;;46.00;36.00;;;;;8.48;70.76;101706.34;4975953;28;45289;-64
2022/04/30 02:53:47;;;;;;;;;45.00;36.00;;;;;8.47;70.98;101702.88;4958000;28;48190;-63
2022/04/30 02:56:13;;;;;;;;;42.25;30.75;;;;;8.45;70.78;101703.78;4975571;28;45321;-62
2022/04/30 03:01:22;;;;;;;;;45.25;35.25;;;;;8.38;70.95;101695.16;4975951;28;45355;-63
2022/04/30 03:03:48;;;;;;;;;37.50;34.50;;;;;8.40;71.09;101696.00;4975937;28;45227;-65
2022/04/30 03:06:15;;;;;;;;;49.75;37.00;;;;;8.39;70.57;101696.00;4975607;28;45293;-65
2022/04/30 03:08:43;;;;;;;;;43.75;35.75;;;;;8.39;71.39;101690.75;4974228;28;45275;-64
2022/04/30 03:11:09;;;;;;;;;46.00;36.25;;;;;8.35;70.90;101689.94;4975860;28;45560;-64
2022/04/30 03:13:36;;;;;;;;;41.75;35.25;;;;;8.36;70.79;101691.66;4975433;28;45612;-63
2022/04/30 03:21:44;;;;;;;;;42.75;35.50;;;;;8.39;70.91;101691.63;4975913;28;45466;-62
2022/04/30 03:24:11;;;;;;;;;44.25;37.75;;;;;8.43;71.74;101692.44;4975173;28;46665;-65
2022/04/30 03:26:37;;;;;;;;;46.00;36.00;;;;;8.42;71.55;101696.84;4975367;28;45423;-64
2022/04/30 03:29:03;;;;;;;;;46.00;38.25;;;;;8.42;71.55;101690.72;4974942;28;45381;-64
2022/04/30 03:31:30;;;;;;;;;44.75;35.75;;;;;8.45;71.01;101694.16;4975515;28;45534;-62
2022/04/30 03:33:56;;;;;;;;;45.50;35.75;;;;;8.45;71.27;101693.28;4974959;28;45988;-64
2022/04/30 03:36:21;;;;;;;;;47.00;36.75;;;;;8.43;71.14;101690.69;4974868;28;45516;-62
2022/04/30 03:38:47;;;;;;;;;45.25;36.00;;;;;8.42;71.75;101685.47;4974993;28;45296;-64
2022/04/30 03:41:12;;;;;;;;;42.00;33.75;;;;;8.42;71.78;101681.09;4975141;28;45573;-64
2022/04/30 03:43:38;;;;;;;;;43.50;35.50;;;;;8.41;71.63;101686.34;4974856;28;46793;-62
2022/04/30 03:46:05;;;;;;;;;42.50;37.50;;;;;8.44;71.67;101686.31;4975287;28;45232;-64
2022/04/30 03:48:30;;;;;;;;;42.25;35.25;;;;;8.47;71.35;101691.50;4975140;28;45204;-63
2022/04/30 03:50:57;;;;;;;;;38.25;32.00;;;;;8.45;71.70;101691.56;4975220;28;45687;-63
2022/04/30 03:53:22;;;;;;;;;41.75;36.25;;;;;8.40;72.38;101684.63;4975036;28;45496;-63
2022/04/30 03:55:48;;;;;;;;;44.50;35.50;;;;;8.40;71.63;101690.75;4975023;28;45384;-64
2022/04/30 03:58:13;;;;;;;;;42.00;34.25;;;;;8.42;72.08;101688.97;4974989;28;45318;-65
2022/04/30 04:00:39;;;;;;;;;43.25;35.75;;;;;8.40;71.93;101679.38;4975073;28;45361;-63
2022/04/30 04:03:04;;;;;;;;;46.00;37.00;;;;;8.41;72.04;101687.22;4975059;28;45322;-63
2022/04/30 04:05:31;;;;;;;;;44.00;35.00;;;;;8.39;72.44;101685.50;4974739;28;45366;-64
2022/04/30 04:08:00;;;;;;;;;45.00;37.00;;;;;8.34;71.67;101691.69;4974714;28;45442;-63
2022/04/30 04:10:26;;;;;;;;;48.50;37.00;;;;;8.34;72.29;101690.81;4977977;28;45573;-63
2022/04/30 04:12:52;;;;;;;;;45.25;38.00;;;;;8.30;71.81;101691.75;4960392;28;47088;-64
2022/04/30 04:18:02;;;;;;;;;46.25;38.00;;;;;8.30;72.27;101691.75;4978234;28;45410;-63
2022/04/30 04:20:27;;;;;;;;;37.75;32.75;;;;;8.24;72.42;101683.97;4978449;28;45477;-64
2022/04/30 04:22:56;;;;;;;;;41.00;34.75;;;;;8.31;72.92;101698.72;4977895;28;46275;-64
2022/04/30 04:28:06;;;;;;;;;45.50;37.25;;;;;8.32;72.15;101684.75;4978400;28;45370;-64
2022/04/30 04:30:32;;;;;;;;;49.25;37.00;;;;;8.34;72.99;101694.31;4978372;28;45616;-63
2022/04/30 04:32:58;;;;;;;;;43.75;35.25;;;;;8.33;72.84;101692.56;4977486;28;45317;-63
2022/04/30 04:35:25;;;;;;;;;45.25;36.25;;;;;8.34;72.78;101696.06;4977450;28;45263;-64
2022/04/30 04:37:50;;;;;;;;;47.75;39.00;;;;;8.35;72.66;101695.19;4977713;28;45325;-63
2022/04/30 04:40:17;;;;;;;;;45.50;35.50;;;;;8.38;72.71;101695.16;4977750;28;45180;-64
2022/04/30 04:42:44;;;;;;;;;45.50;37.75;;;;;8.38;72.65;101695.16;4977517;28;45507;-63
2022/04/30 04:45:11;;;;;;;;;47.75;38.00;;;;;8.39;73.39;101696.88;4977854;28;45373;-64
2022/04/30 04:47:40;;;;;;;;;49.25;39.00;;;;;8.40;72.64;101697.72;4977963;28;45435;-62
2022/04/30 04:50:08;;;;;;;;;46.00;36.75;;;;;8.44;72.29;101699.41;4978166;28;45392;-63
2022/04/30 04:52:34;;;;;;;;;46.00;36.75;;;;;8.48;72.19;101703.72;4977323;28;45758;-63
2022/04/30 04:54:59;;;;;;;;;45.25;38.75;;;;;8.48;73.46;101699.38;4977359;28;45443;-64
2022/04/30 04:57:24;;;;;;;;;51.50;40.00;;;;;8.52;72.88;101713.38;4977428;28;45369;-64
2022/04/30 04:59:51;;;;;;;;;46.75;38.50;;;;;8.53;73.03;101720.34;4977616;28;45424;-65
2022/04/30 05:02:17;;;;;;;;;47.25;39.00;;;;;8.59;73.27;101725.50;4959570;28;47192;-65
2022/04/30 05:04:43;;;;;;;;;50.50;39.50;;;;;8.59;72.89;101715.00;4959837;28;45319;-63
2022/04/30 05:07:08;;;;;;;;;49.25;40.00;;;;;8.64;72.50;101724.56;4977733;28;45682;-66
2022/04/30 05:09:33;;;;;;;;;51.50;41.50;;;;;8.66;72.58;101720.16;4977762;28;45265;-63
2022/04/30 05:12:01;;;;;;;;;48.25;40.00;;;;;8.66;72.98;101722.78;4977084;28;46333;-64
2022/04/30 05:14:33;;;;;;;;;45.75;37.50;;;;;8.62;72.69;101717.59;4977104;28;45551;-64
2022/04/30 05:17:04;;;;;;;;;47.00;38.00;;;;;8.60;73.38;101722.00;4976858;28;45357;-65
2022/04/30 05:19:30;;;;;;;;;43.00;36.75;;;;;8.60;72.72;101722.00;4959082;28;45643;-64
2022/04/30 05:21:56;;;;;;;;;52.50;41.75;;;;;8.60;73.25;101722.00;4975897;28;45669;-64
2022/04/30 05:24:21;;;;;;;;;45.75;37.50;;;;;8.64;73.08;101727.19;4977205;28;45446;-64
2022/04/30 05:26:49;;;;;;;;;47.75;39.25;;;;;8.70;73.61;101727.09;4977035;28;45933;-63
2022/04/30 05:29:16;;;;;;;;;47.75;37.50;;;;;8.77;72.69;101726.97;4977330;28;45505;-63
2022/04/30 05:31:41;;;;;;;;;50.75;40.75;;;;;8.89;72.31;101738.19;4976924;28;45446;-64
2022/04/30 05:34:07;;;;;;;;;51.25;39.25;;;;;8.98;72.28;101727.56;4977149;28;45552;-62
2022/04/30 05:36:32;;;;;;;;;50.00;37.50;;;;;9.15;72.00;101735.19;4976898;28;45423;-63
2022/04/30 05:38:59;;;;;;;;;49.25;38.50;;;;;9.25;71.41;101735.91;4977184;28;45571;-64
2022/04/30 05:41:24;;;;;;;;;49.50;36.75;;;;;9.36;70.94;101746.22;4976623;28;45998;-63
2022/04/30 05:43:50;;;;;;;;;52.75;41.25;;;;;9.42;70.84;101746.13;4976793;28;45409;-64
2022/04/30 05:46:16;;;;;;;;;39.75;35.00;;;;;9.43;70.38;101750.47;4976784;28;45341;-65
2022/04/30 05:48:42;;;;;;;;;38.75;33.50;;;;;9.44;70.18;101749.59;4977115;28;45511;-63
2022/04/30 05:51:07;;;;;;;;;51.00;39.25;;;;;9.52;69.92;101749.47;4976441;28;45289;-62
2022/04/30 05:53:32;;;;;;;;;47.75;37.25;;;;;9.53;69.88;101756.47;4976562;28;45387;-63
2022/04/30 05:55:58;;;;;;;;;51.25;40.25;;;;;9.54;69.97;101752.06;4976255;28;45421;-62
2022/04/30 05:58:24;;;;;;;;;42.75;35.75;;;;;9.52;69.77;101757.34;4976157;28;45626;-63
2022/04/30 06:00:49;;;;;;;;;46.00;37.00;;;;;9.52;69.62;101754.72;4976108;28;46124;-61
2022/04/30 06:03:15;;;;;;;;;49.00;37.75;;;;;9.59;69.32;101766.00;4976328;28;45249;-64
2022/04/30 06:05:41;;;;;;;;;46.00;37.25;;;;;9.60;69.16;101760.72;4976498;28;45319;-63
2022/04/30 06:08:07;;;;;;;;;43.00;36.50;;;;;9.65;68.91;101758.03;4976305;28;45184;-64
2022/04/30 06:10:32;;;;;;;;;52.50;41.00;;;;;9.69;68.71;101761.44;4975930;28;46550;-63
2022/04/30 06:12:59;;;;;;;;;46.25;38.00;;;;;9.72;68.52;101764.91;4975820;28;45451;-62
2022/04/30 06:15:24;;;;;;;;;45.75;35.75;;;;;9.73;68.67;101756.13;4976250;28;45402;-63
2022/04/30 06:17:49;;;;;;;;;46.50;38.00;;;;;9.74;68.09;101763.13;4976310;28;45481;-62
2022/04/30 06:20:15;;;;;;;;;42.25;34.25;;;;;9.75;68.15;101764.84;4975950;28;45464;-61
2022/04/30 06:22:40;;;;;;;;;49.25;36.75;;;;;9.80;68.17;101764.75;4976260;28;45271;-62
2022/04/30 06:25:06;;;;;;;;;46.50;38.00;;;;;9.79;68.50;101774.41;4975974;28;45873;-63
2022/04/30 06:27:32;;;;;;;;;46.75;39.50;;;;;9.82;68.27;101773.47;4975868;28;45355;-63
2022/04/30 06:29:59;;;;;;;;;52.25;41.75;;;;;9.82;67.90;101770.00;4975738;28;46351;-62
2022/04/30 06:32:24;;;;;;;;;44.25;36.00;;;;;9.89;67.43;101777.72;4975272;28;45386;-64
2022/04/30 06:34:49;;;;;;;;;46.75;38.25;;;;;9.95;67.32;101776.75;4975829;28;45348;-62
2022/04/30 06:37:16;;;;;;;;;46.25;38.25;;;;;10.05;67.21;101780.06;4976292;28;45873;-64
2022/04/30 06:39:42;;;;;;;;;50.25;39.25;;;;;10.16;66.53;101777.25;4975799;28;47400;-65
2022/04/30 06:42:08;;;;;;;;;46.25;35.75;;;;;10.20;65.88;101765.75;4958310;28;45671;-63
2022/04/30 06:44:34;;;;;;;;;41.00;35.25;;;;;10.47;65.57;101766.13;4975712;28;45365;-63
2022/04/30 06:46:59;;;;;;;;;48.75;39.75;;;;;10.69;64.65;101770.97;4976155;28;45349;-64
2022/04/30 06:49:24;;;;;;;;;45.00;39.00;;;;;10.89;63.92;101776.66;4958124;28;46236;-62
2022/04/30 06:51:50;;;;;;;;;42.00;35.00;;;;;11.03;63.42;101780.75;4974984;28;45430;-64
2022/04/30 06:57:08;;;;;;;;;41.25;35.75;;;;;11.16;62.81;101784.81;4974941;28;45331;-64
2022/04/30 06:59:41;;;;;;;;;49.25;35.25;;;;;11.29;62.70;101797.69;4974633;28;45561;-63
2022/04/30 07:02:17;;;;;;;;;40.50;32.25;;;;;11.39;61.72;101786.91;4975773;28;45613;-64
2022/04/30 07:04:43;;;;;;;;;40.75;33.50;;;;;11.50;62.21;101797.19;4976338;28;45465;-64
2022/04/30 07:07:10;;;;;;;;;41.50;37.25;;;;;11.51;61.01;101787.53;4958009;28;45728;-64
2022/04/30 07:09:35;;;;;;;;;35.00;29.75;;;;;11.54;60.35;101793.56;4975355;28;45617;-63
2022/04/30 07:12:04;;;;;;;;;31.75;31.25;;;;;11.56;60.71;101798.81;4975397;28;45346;-64
2022/04/30 07:14:31;;;;;;;;;44.50;36.50;;;;;11.61;60.03;101806.59;4975523;28;45254;-62
2022/04/30 07:16:57;;;;;;;;;39.75;33.00;;;;;11.61;59.42;101796.94;4975036;28;45274;-62
2022/04/30 07:19:22;;;;;;;;;34.75;32.00;;;;;11.58;59.55;101788.22;4957782;28;47521;-61
2022/04/30 07:21:51;;;;;;;;;41.50;34.25;;;;;11.67;59.58;101804.69;4975523;28;45407;-64
2022/04/30 07:24:16;;;;;;;;;39.75;31.50;;;;;11.66;59.43;101802.06;4976411;28;45374;-63
2022/04/30 07:26:42;;;;;;;;;41.75;36.00;;;;;11.72;59.83;101808.97;4974079;28;45326;-65
2022/04/30 07:29:07;;;;;;;;;32.50;29.25;;;;;11.79;59.68;101808.78;4957269;28;47756;-63
2022/04/30 07:31:32;;;;;;;;;37.75;33.50;;;;;11.87;59.14;101795.38;4974695;28;45252;-63
2022/04/30 07:33:58;;;;;;;;;35.50;31.25;;;;;11.92;58.97;101804.03;4975004;28;48365;-64
2022/04/30 07:36:23;;;;;;;;;30.00;27.00;;;;;12.02;58.99;101809.97;4975447;28;45528;-63
2022/04/30 07:38:48;;;;;;;;;31.50;29.50;;;;;11.95;58.75;101814.50;4974796;28;46093;-62
2022/04/30 07:41:14;;;;;;;;;37.25;32.00;;;;;11.95;58.46;101818.94;4957512;28;45671;-65
2022/04/30 07:43:39;;;;;;;;;38.75;31.75;;;;;11.92;58.77;101817.22;4957789;28;45281;-65
2022/04/30 07:46:05;;;;;;;;;37.50;32.00;;;;;11.92;58.65;101819.88;4978559;28;45573;-64
2022/04/30 07:48:30;;;;;;;;;37.25;32.50;;;;;11.99;58.39;101820.56;4978101;28;45341;-63
2022/04/30 07:50:57;;;;;;;;;34.00;30.50;;;;;12.02;58.65;101815.25;4978208;28;45212;-65
2022/04/30 07:53:25;;;;;;;;;31.75;31.50;;;;;12.03;58.33;101817.00;4978287;28;45287;-65
2022/04/30 07:55:51;;;;;;;;;30.75;30.25;;;;;12.04;57.88;101817.84;4978068;28;45536;-64
2022/04/30 07:58:16;;;;;;;;;39.00;31.50;;;;;12.13;58.40;101812.31;4978007;28;45425;-69
2022/04/30 08:00:41;;;;;;;;;38.75;31.75;;;;;12.28;57.85;101818.97;4978215;28;45346;-65
2022/04/30 08:03:07;;;;;;;;;28.50;27.25;;;;;12.44;57.95;101815.88;4960786;28;45310;-67
2022/04/30 08:05:32;;;;;;;;;34.75;32.25;;;;;12.65;57.25;101820.53;4977802;28;45423;-65
2022/04/30 08:07:58;;;;;;;;;33.50;31.25;;;;;12.75;54.93;101820.31;4977873;28;45410;-65
2022/04/30 08:10:24;;;;;;;;;26.75;21.75;;;;;12.61;54.85;101815.41;4960275;28;45705;-66
2022/04/30 08:12:54;;;;;;;;;30.75;27.75;;;;;12.41;55.71;101817.69;4978533;28;45307;-65
2022/04/30 08:15:21;;;;;;;;;29.75;29.00;;;;;12.35;55.26;101817.88;4978571;28;45411;-65
2022/04/30 08:17:46;;;;;;;;;32.50;28.25;;;;;12.41;55.93;101820.34;4961565;28;46522;-66
2022/04/30 08:20:12;;;;;;;;;34.25;28.50;;;;;12.55;56.09;101814.69;4977541;28;45325;-65
2022/04/30 08:22:38;;;;;;;;;38.25;30.50;;;;;12.70;56.32;101809.88;4977629;28;45463;-65
2022/04/30 08:25:04;;;;;;;;;35.75;32.25;;;;;12.85;55.67;101812.03;4977845;28;45372;-64
2022/04/30 08:27:29;;;;;;;;;37.00;32.50;;;;;12.93;55.33;101811.84;4977342;28;45398;-66
2022/04/30 08:29:55;;;;;;;;;37.50;32.25;;;;;12.98;55.07;101811.66;4976340;28;45469;-65
2022/04/30 08:32:24;;;;;;;;;39.00;31.75;;;;;12.96;55.49;101795.00;4977347;28;45287;-64
2022/04/30 08:34:50;;;;;;;;;35.75;28.25;;;;;13.17;55.05;101822.53;4960636;28;45407;-65
2022/04/30 08:37:15;;;;;;;;;31.25;26.50;;;;;13.17;54.93;101809.34;4976986;28;46790;-62
2022/04/30 08:39:41;;;;;;;;;31.25;30.25;;;;;13.23;53.86;101819.72;4976933;28;46010;-64
2022/04/30 08:42:07;;;;;;;;;28.25;27.00;;;;;13.15;53.27;101817.28;4977276;28;45432;-65
2022/04/30 08:44:36;;;;;;;;;38.25;31.25;;;;;13.19;54.28;101819.84;4978142;28;45572;-65
2022/04/30 08:47:02;;;;;;;;;30.50;27.00;;;;;13.33;54.23;101817.66;4977272;28;45274;-64
2022/04/30 08:49:27;;;;;;;;;29.25;26.75;;;;;13.35;53.27;101805.25;4975095;28;45436;-63
2022/04/30 08:51:52;;;;;;;;;28.00;24.00;;;;;13.39;53.76;101800.72;4977548;28;45350;-63
2022/04/30 08:54:18;;;;;;;;;31.25;30.00;;;;;13.38;53.63;101818.38;4977318;28;45630;-63
2022/04/30 08:56:57;;;;;;;;;29.25;26.25;;;;;13.33;53.62;101795.63;4977278;28;45666;-64
2022/04/30 08:59:23;;;;;;;;;31.25;27.50;;;;;13.51;53.72;101803.00;4975908;28;45504;-64
2022/04/30 09:01:54;;;;;;;;;25.50;24.50;;;;;13.61;53.37;101803.56;4984804;28;45426;-63
2022/04/30 09:04:20;;;;;;;;;31.00;29.75;;;;;13.76;53.09;101798.66;4977681;28;45520;-67
2022/04/30 09:06:50;;;;;;;;;30.25;27.75;;;;;13.77;52.40;101801.25;4977164;28;45610;-64
2022/04/30 09:09:24;;;;;;;;;34.00;30.25;;;;;13.82;52.04;101794.03;4976983;28;45246;-65
2022/04/30 09:11:50;;;;;;;;;28.00;27.50;;;;;13.95;51.98;101804.19;4977431;28;45413;-66
2022/04/30 09:14:23;;;;;;;;;29.25;26.75;;;;;13.97;52.20;101802.38;4977459;28;45276;-63
2022/04/30 09:16:50;;;;;;;;;29.75;26.50;;;;;13.93;51.43;101791.00;4973571;28;47288;-66
2022/04/30 09:19:16;;;;;;;;;28.00;25.25;;;;;14.03;50.23;101794.22;4976519;28;45374;-65
2022/04/30 09:21:47;;;;;;;;;40.25;34.50;;;;;14.02;50.69;101795.13;4976676;28;45235;-63
2022/04/30 09:24:14;;;;;;;;;20.75;20.25;;;;;14.00;50.75;101781.09;4977070;28;45386;-64
2022/04/30 09:26:41;;;;;;;;;23.75;21.75;;;;;14.12;50.62;101790.34;4976418;28;46703;-63
2022/04/30 09:29:23;;;;;;;;;30.75;26.00;;;;;14.19;50.04;101775.97;4974806;28;45393;-63
2022/04/30 09:31:53;;;;;;;;;23.75;21.25;;;;;14.30;50.31;101792.34;4978670;28;45178;-63
2022/04/30 09:39:49;;;;;;;;;18.50;18.50;;;;;14.35;48.18;101784.25;4994149;28;45582;-65
2022/04/30 09:42:15;;;;;;;;;18.25;17.00;;;;;14.36;48.30;101795.69;4996045;28;45329;-66
2022/04/30 09:44:40;;;;;;;;;16.00;16.00;;;;;14.36;47.66;101785.13;4980728;28;45565;-65
2022/04/30 09:47:07;;;;;;;;;14.50;12.00;;;;;14.43;47.43;101787.47;4975796;28;45590;-64
2022/04/30 09:55:05;;;;;;;;;20.50;19.00;;;;;14.79;46.09;101780.00;4995781;28;45164;-64
2022/04/30 09:57:34;;;;;;;;;22.00;21.75;;;;;14.93;46.16;101779.47;4993453;28;47187;-65
2022/04/30 10:00:00;;;;;;;;;25.50;22.00;;;;;14.94;45.71;101776.78;4991990;28;45424;-66
2022/04/30 10:02:30;;;;;;;;;19.50;19.50;;;;;14.97;45.58;101773.13;4995932;28;45344;-65
2022/04/30 10:04:56;;;;;;;;;18.50;17.25;;;;;14.99;46.65;101776.56;4996197;28;45199;-65
2022/04/30 10:07:24;;;;;;;;;16.25;15.25;;;;;15.13;46.41;101781.34;4993199;28;46122;-65
2022/04/30 10:10:12;;;;;;;;;21.50;21.00;;;;;15.18;45.77;101774.06;4987169;28;45424;-66
2022/04/30 10:13:04;;;;;;;;;22.25;20.75;;;;;15.23;45.83;101773.84;4975417;28;45291;-66
2022/04/30 10:15:44;;;;;;;;;18.50;18.50;;;;;15.23;44.78;101780.03;4975587;28;45333;-66
2022/04/30 10:18:10;;;;;;;;;22.00;20.50;;;;;15.22;44.92;101778.31;4975275;28;45485;-66
2022/04/30 10:20:35;;;;;;;;;23.75;20.00;;;;;15.21;44.97;101773.06;4958472;28;45269;-66
2022/04/30 10:23:04;;;;;;;;;18.50;16.50;;;;;15.16;45.45;101774.09;4980705;28;45221;-66
2022/04/30 10:25:46;;;;;;;;;26.50;21.00;;;;;15.26;44.54;101771.94;4993326;28;45529;-64
2022/04/30 10:28:15;;;;;;;;;21.50;19.75;;;;;15.30;44.39;101767.38;4979841;28;45796;-65
2022/04/30 10:30:42;;;;;;;;;14.00;14.00;;;;;15.33;44.10;101764.59;4990549;28;45369;-63
2022/04/30 10:33:09;;;;;;;;;17.75;17.00;;;;;15.39;43.51;101759.06;4957341;28;45505;-65
2022/04/30 10:35:39;;;;;;;;;20.00;15.75;;;;;15.51;43.99;101773.59;4975546;28;45577;-62
2022/04/30 10:38:14;;;;;;;;;22.25;19.50;;;;;15.60;42.53;101759.09;4974592;28;46154;-66
2022/04/30 10:40:41;;;;;;;;;14.00;14.00;;;;;15.51;40.94;101768.28;4974501;28;45490;-66
2022/04/30 10:43:27;;;;;;;;;15.50;14.25;;;;;15.37;42.43;101760.88;4975504;28;45393;-68
2022/04/30 10:45:55;;;;;;;;;15.25;15.00;;;;;15.41;42.41;101748.38;4962751;28;45307;-64
2022/04/30 10:48:20;;;;;;;;;28.50;26.25;;;;;15.56;42.67;101766.28;4974370;28;47346;-70
2022/04/30 10:50:47;;;;;;;;;20.50;17.75;;;;;15.58;42.56;101752.97;4974944;28;45315;-67
2022/04/30 10:53:14;;;;;;;;;18.00;18.00;;;;;15.66;43.36;101760.59;4975247;28;45391;-66
2022/04/30 10:55:40;;;;;;;;;14.25;13.75;;;;;15.74;42.53;101754.03;4975884;28;45483;-69
2022/04/30 10:58:06;;;;;;;;;20.00;16.25;;;;;15.71;42.70;101743.56;4958563;28;46282;-67
2022/04/30 11:00:31;;;;;;;;;16.00;15.00;;;;;15.72;42.31;101747.06;4975568;28;45383;-68
2022/04/30 11:03:10;;;;;;;;;15.25;15.25;;;;;15.80;42.86;101747.59;4973491;28;45581;-68
2022/04/30 11:05:36;;;;;;;;;15.25;11.25;;;;;15.94;42.43;101744.38;4975314;28;45547;-66
2022/04/30 11:08:05;;;;;;;;;22.75;16.75;;;;;16.03;40.56;101738.66;4974301;28;46985;-65
2022/04/30 11:10:32;;;;;;;;;20.50;16.25;;;;;16.09;41.54;101742.84;4974346;28;45490;-68
2022/04/30 11:13:05;;;;;;;;;19.75;18.25;;;;;16.13;40.07;101744.44;4974266;28;45418;-68
2022/04/30 11:15:31;;;;;;;;;15.75;14.50;;;;;16.10;40.77;101739.25;4975311;28;45596;-67
2022/04/30 11:17:58;;;;;;;;;15.00;15.00;;;;;16.20;40.91;101735.25;4973809;28;45347;-68
2022/04/30 11:20:25;;;;;;;;;14.00;11.75;;;;;16.28;40.57;101728.72;4955577;28;45401;-67
2022/04/30 11:23:02;;;;;;;;;17.75;14.75;;;;;16.27;39.98;101722.53;4953962;28;45316;-65
2022/04/30 11:25:36;;;;;;;;;14.50;12.00;;;;;16.27;39.53;101714.56;4974911;28;45480;-67
2022/04/30 11:28:05;;;;;;;;;15.25;14.25;;;;;16.31;39.46;101715.31;4974118;28;45360;-68
2022/04/30 11:30:37;;;;;;;;;18.00;15.00;;;;;16.39;38.70;101713.16;4974539;28;45364;-70
2022/04/30 11:33:03;;;;;;;;;19.25;17.50;;;;;16.28;38.70;101695.06;4974242;28;45431;-68
2022/04/30 11:35:29;;;;;;;;;14.50;11.75;;;;;16.36;38.72;101706.19;4970732;28;45576;-68
2022/04/30 11:37:54;;;;;;;;;10.75;10.75;;;;;16.40;38.41;101708.69;4973722;28;45522;-72
2022/04/30 11:40:24;;;;;;;;;8.50;8.25;;;;;16.48;39.09;101712.72;4973315;28;45957;-66
2022/04/30 11:43:00;;;;;;;;;12.50;11.00;;;;;16.59;39.02;101698.94;4985418;28;45389;-70
2022/04/30 11:45:31;;;;;;;;;8.75;8.75;;;;;16.73;39.01;101692.97;4975457;28;45580;-69
2022/04/30 11:48:00;;;;;;;;;8.00;8.00;;;;;16.77;38.51;101697.19;4974859;28;46647;-68